createdAt,value
2018-09-21T00:03:46.026Z,21.70
2018-09-21T00:08:49.141Z,21.60
2018-09-21T00:13:52.228Z,21.60
2018-09-21T00:18:55.379Z,21.50
2018-09-21T00:23:58.476Z,21.50
2018-09-21T00:29:01.561Z,21.50
2018-09-21T00:34:04.667Z,21.40
2018-09-21T00:39:09.269Z,21.40
2018-09-21T00:44:12.355Z,21.30
2018-09-21T00:49:15.479Z,21.30
2018-09-21T00:54:19.516Z,21.30
2018-09-21T00:59:22.599Z,21.20
2018-09-21T01:04:25.703Z,21.20
2018-09-21T01:09:28.805Z,21.20
2018-09-21T01:14:31.884Z,21.10
2018-09-21T01:19:35.168Z,21.10
2018-09-21T01:24:38.284Z,21.00
2018-09-21T01:29:41.520Z,21.00
2018-09-21T01:34:44.608Z,21.00
2018-09-21T01:39:47.726Z,20.90
2018-09-21T01:44:50.818Z,20.90
2018-09-21T01:49:53.955Z,20.90
2018-09-21T01:54:57.178Z,20.90
2018-09-21T02:00:00.280Z,20.80
2018-09-21T02:05:03.418Z,20.80
2018-09-21T02:10:06.532Z,20.80
2018-09-21T02:15:09.713Z,20.80
2018-09-21T02:20:12.902Z,20.70
2018-09-21T02:25:15.999Z,20.80
2018-09-21T02:30:19.111Z,20.70
2018-09-21T02:35:22.227Z,20.70
2018-09-21T02:40:25.327Z,20.70
2018-09-21T02:45:28.422Z,20.70
2018-09-21T02:50:31.550Z,20.60
2018-09-21T02:55:34.632Z,20.60
2018-09-21T03:00:37.849Z,20.60
2018-09-21T03:05:40.828Z,20.60
2018-09-21T03:10:43.935Z,20.60
2018-09-21T03:15:47.047Z,20.60
2018-09-21T03:20:50.393Z,20.60
2018-09-21T03:25:53.650Z,20.60
2018-09-21T03:30:56.775Z,20.60
2018-09-21T03:35:59.863Z,20.60
2018-09-21T03:41:03.792Z,20.60
2018-09-21T03:46:06.915Z,20.50
2018-09-21T03:51:10.039Z,20.50
2018-09-21T03:56:13.161Z,20.50
2018-09-21T04:06:25.761Z,20.50
2018-09-21T04:11:28.852Z,20.50
2018-09-21T04:16:32.031Z,20.40
2018-09-21T04:21:35.123Z,20.40
2018-09-21T04:26:38.216Z,20.50
2018-09-21T04:31:41.303Z,20.40
2018-09-21T04:36:44.437Z,20.50
2018-09-21T04:41:47.549Z,20.50
2018-09-21T04:46:50.635Z,20.50
2018-09-21T04:51:53.760Z,20.50
2018-09-21T04:56:56.859Z,20.50
2018-09-21T05:02:00.088Z,20.50
2018-09-21T05:07:03.228Z,20.50
2018-09-21T05:12:06.581Z,20.50
2018-09-21T05:17:09.675Z,20.50
2018-09-21T05:22:12.776Z,20.50
2018-09-21T05:27:15.897Z,20.50
2018-09-21T05:32:18.971Z,20.50
2018-09-21T05:37:22.225Z,20.50
2018-09-21T05:42:25.351Z,20.50
2018-09-21T05:47:28.449Z,20.50
2018-09-21T05:52:31.567Z,20.60
2018-09-21T05:57:34.679Z,20.60
2018-09-21T06:02:37.871Z,20.70
2018-09-21T06:07:47.619Z,20.70
2018-09-21T06:12:50.678Z,20.80
2018-09-21T06:17:53.777Z,20.80
2018-09-21T06:22:56.895Z,20.90
2018-09-21T06:27:59.983Z,21.00
2018-09-21T06:33:03.078Z,21.20
2018-09-21T06:38:06.336Z,21.40
2018-09-21T06:43:09.415Z,21.60
2018-09-21T06:48:12.515Z,21.70
2018-09-21T06:53:15.614Z,21.90
2018-09-21T06:58:18.697Z,22.10
2018-09-21T07:03:21.798Z,22.30
2018-09-21T07:08:24.987Z,22.50
2018-09-21T07:13:28.039Z,22.70
2018-09-21T07:18:31.142Z,22.80
2018-09-21T07:23:34.254Z,23.00
2018-09-21T07:28:37.379Z,23.00
2018-09-21T07:33:40.508Z,23.20
2018-09-21T07:38:43.606Z,23.30
2018-09-21T07:43:47.046Z,23.30
2018-09-21T07:48:50.245Z,23.40
2018-09-21T07:53:53.465Z,23.50
2018-09-21T07:58:56.546Z,23.60
2018-09-21T08:03:59.768Z,23.60
2018-09-21T08:09:03.135Z,23.60
2018-09-21T08:14:06.816Z,23.70
2018-09-21T08:19:09.992Z,23.80
2018-09-21T08:24:13.112Z,23.80
2018-09-21T08:29:16.236Z,23.90
2018-09-21T08:34:19.365Z,24.00
2018-09-21T08:39:22.457Z,24.00
2018-09-21T08:44:25.656Z,24.10
2018-09-21T08:49:28.793Z,24.10
2018-09-21T08:54:31.924Z,24.20
2018-09-21T08:59:35.059Z,24.30
2018-09-21T09:04:38.185Z,24.40
2018-09-21T09:09:41.292Z,24.50
2018-09-21T09:14:44.422Z,24.60
2018-09-21T09:19:47.580Z,24.60
2018-09-21T09:24:50.715Z,24.70
2018-09-21T09:29:53.825Z,24.70
2018-09-21T09:34:56.903Z,24.70
2018-09-21T09:40:00.032Z,24.80
2018-09-21T09:45:03.236Z,24.90
2018-09-21T09:50:06.771Z,24.90
2018-09-21T09:55:09.855Z,24.90
2018-09-21T10:00:12.975Z,25.00
2018-09-21T10:05:16.139Z,25.00
2018-09-21T10:10:19.399Z,25.10
2018-09-21T10:15:22.448Z,25.10
2018-09-21T10:20:25.572Z,25.20
2018-09-21T10:25:28.927Z,25.20
2018-09-21T10:30:32.336Z,25.30
2018-09-21T10:35:35.523Z,25.40
2018-09-21T10:40:38.535Z,25.50
2018-09-21T10:45:41.731Z,25.50
2018-09-21T10:50:44.912Z,25.50
2018-09-21T10:55:48.007Z,25.60
2018-09-21T11:00:51.079Z,25.60
2018-09-21T11:05:54.212Z,25.60
2018-09-21T11:10:57.343Z,25.60
2018-09-21T11:16:00.456Z,25.60
2018-09-21T11:21:03.581Z,25.50
2018-09-21T11:26:06.750Z,25.40
2018-09-21T11:31:09.828Z,25.10
2018-09-21T11:36:12.947Z,24.80
2018-09-21T11:41:16.108Z,24.30
2018-09-21T11:46:19.194Z,24.00
2018-09-21T11:51:22.286Z,23.70
2018-09-21T11:56:25.399Z,23.40
2018-09-21T12:01:28.569Z,23.20
2018-09-21T12:06:31.736Z,23.00
2018-09-21T12:11:34.992Z,22.80
2018-09-21T12:16:38.099Z,22.70
2018-09-21T12:21:41.273Z,22.50
2018-09-21T12:26:44.545Z,22.30
2018-09-21T12:31:47.684Z,22.20
2018-09-21T12:36:51.093Z,22.10
2018-09-21T12:41:54.283Z,22.00
2018-09-21T12:46:57.408Z,21.90
2018-09-21T12:52:00.522Z,21.90
2018-09-21T12:57:03.715Z,21.80
2018-09-21T13:02:07.331Z,21.70
2018-09-21T13:07:10.443Z,21.60
2018-09-21T13:12:13.543Z,21.60
2018-09-21T13:17:16.659Z,21.50
2018-09-21T13:22:19.759Z,21.50
2018-09-21T13:27:22.872Z,21.50
2018-09-21T13:32:26.017Z,21.40
2018-09-21T13:37:29.784Z,21.40
2018-09-21T13:42:33.039Z,21.40
2018-09-21T13:47:36.160Z,21.40
2018-09-21T13:52:39.315Z,21.30
2018-09-21T13:57:42.388Z,21.30
2018-09-21T14:02:45.547Z,21.30
2018-09-21T14:07:48.662Z,21.20
2018-09-21T14:12:51.802Z,21.10
2018-09-21T14:17:54.894Z,21.00
2018-09-21T14:22:57.999Z,21.00
2018-09-21T14:28:01.099Z,20.90
2018-09-21T14:33:04.211Z,20.90
2018-09-21T14:38:07.300Z,20.90
2018-09-21T14:43:10.455Z,20.90
2018-09-21T14:48:13.624Z,20.90
2018-09-21T14:53:16.746Z,20.90
2018-09-21T14:58:19.867Z,20.80
2018-09-21T15:03:22.968Z,20.70
2018-09-21T15:08:26.115Z,20.70
2018-09-21T15:13:29.140Z,20.70
2018-09-21T15:18:32.219Z,20.70
2018-09-21T15:23:35.342Z,20.70
2018-09-21T15:28:38.460Z,20.60
2018-09-21T15:33:41.568Z,20.60
2018-09-21T15:38:44.668Z,20.50
2018-09-21T15:43:47.780Z,20.30
2018-09-21T15:48:50.859Z,20.30
2018-09-21T15:53:53.955Z,20.20
2018-09-21T15:58:57.117Z,20.20
2018-09-21T16:04:00.222Z,20.20
2018-09-21T16:09:05.920Z,20.20
2018-09-21T16:14:09.024Z,20.20
2018-09-21T16:19:12.112Z,20.20
2018-09-21T16:24:15.309Z,20.20
2018-09-21T16:29:18.488Z,20.20
2018-09-21T16:34:21.591Z,20.20
2018-09-21T16:39:24.713Z,20.20
2018-09-21T16:44:27.813Z,20.10
2018-09-21T16:49:30.916Z,20.10
2018-09-21T16:54:34.043Z,20.00
2018-09-21T16:59:37.168Z,19.90
2018-09-21T17:04:40.388Z,19.80
2018-09-21T17:09:44.357Z,19.70
2018-09-21T17:14:47.427Z,19.60
2018-09-21T17:19:50.615Z,19.50
2018-09-21T17:24:53.727Z,19.40
2018-09-21T17:29:56.855Z,19.40
2018-09-21T17:34:59.963Z,19.30
2018-09-21T17:40:03.070Z,19.20
2018-09-21T17:45:06.347Z,19.10
2018-09-21T17:50:10.279Z,19.00
2018-09-21T17:55:13.356Z,18.90
2018-09-21T18:00:16.440Z,18.80
2018-09-21T18:05:19.572Z,18.60
2018-09-21T18:10:22.695Z,18.60
2018-09-21T18:15:25.796Z,18.50
2018-09-21T18:20:29.031Z,18.40
2018-09-21T18:25:32.178Z,18.20
2018-09-21T18:30:35.235Z,18.00
2018-09-21T18:35:38.338Z,18.00
2018-09-21T18:40:41.522Z,17.90
2018-09-21T18:45:44.647Z,18.00
2018-09-21T18:50:48.141Z,18.00
2018-09-21T18:55:51.173Z,18.00
2018-09-21T19:00:54.279Z,17.80
2018-09-21T19:05:57.516Z,17.70
2018-09-21T19:11:00.629Z,17.70
2018-09-21T19:16:03.831Z,17.60
2018-09-21T19:21:06.909Z,17.60
2018-09-21T19:26:10.139Z,17.60
2018-09-21T19:31:13.243Z,17.60
2018-09-21T19:36:16.360Z,17.60
2018-09-21T19:41:19.483Z,17.50
2018-09-21T19:46:22.603Z,17.50
2018-09-21T19:51:25.750Z,17.40
2018-09-21T19:56:28.930Z,17.10
2018-09-21T20:01:32.035Z,16.90
2018-09-21T20:06:35.164Z,16.80
2018-09-21T20:11:38.246Z,16.70
2018-09-21T20:16:41.343Z,16.80
2018-09-21T20:21:44.492Z,16.80
2018-09-21T20:26:47.620Z,16.80
2018-09-21T20:31:56.275Z,16.80
2018-09-21T20:36:59.495Z,16.70
2018-09-21T20:42:02.528Z,16.50
2018-09-21T20:47:05.681Z,16.40
2018-09-21T20:52:08.786Z,16.30
2018-09-21T20:57:11.884Z,16.20
2018-09-21T21:02:15.219Z,16.20
2018-09-21T21:07:18.407Z,16.20
2018-09-21T21:12:21.520Z,16.00
2018-09-21T21:17:25.531Z,16.00
2018-09-21T21:22:29.228Z,15.90
2018-09-21T21:27:33.201Z,15.90
2018-09-21T21:32:36.337Z,15.80
2018-09-21T21:37:39.464Z,15.80
2018-09-21T21:42:42.559Z,15.60
2018-09-21T21:47:45.660Z,15.70
2018-09-21T21:52:48.797Z,15.60
2018-09-21T21:57:51.900Z,15.60
2018-09-21T22:02:55.009Z,15.50
2018-09-21T22:07:58.110Z,15.50
2018-09-21T22:13:06.631Z,15.50
2018-09-21T22:18:09.735Z,15.40
2018-09-21T22:23:12.822Z,15.30
2018-09-21T22:28:15.926Z,15.30
2018-09-21T22:33:19.043Z,15.30
2018-09-21T22:38:22.136Z,15.20
2018-09-21T22:43:25.231Z,15.10
2018-09-21T22:48:28.330Z,15.10
2018-09-21T22:53:31.524Z,15.00
2018-09-21T22:58:34.650Z,15.00
2018-09-21T23:03:37.832Z,14.90
2018-09-21T23:08:40.951Z,14.90
2018-09-21T23:13:44.070Z,14.90
2018-09-21T23:18:47.179Z,14.80
2018-09-21T23:23:50.251Z,14.80
2018-09-21T23:28:53.352Z,15.00
2018-09-21T23:33:56.459Z,15.00
2018-09-21T23:38:59.579Z,14.90
2018-09-21T23:44:02.873Z,15.00
2018-09-21T23:49:06.039Z,15.00
2018-09-21T23:54:09.164Z,15.00
2018-09-21T23:59:12.240Z,14.90
